West Edmeston, New York
Current Conditions -  °F | °C
As of 9:53 AM on Wednesday 26 Nov 2014 (Local Time) from KRME Reporting Station
Overcast Overcast  
Wind Chill: 30°   Ceiling: 3200
Heat Index: 35°   Visibility: 10mi
Dew Point: 24°   Wind: 6mph
Humidity: 64%   Direction: 10°N
Pressure: 30.18"   Gusts: NA
Location:  42.76°N, 75.28°W
Report Text: KRME 261453Z 01005KT 10SM OVC032 02/M04 A3018 RMK AO2 PRESFR SLP224 T00171044 58015
Loading
Personal Weather Stations






























Interactive Weather Map New forecast layout! Learn more

10-Day Weather Forecast

Advertisements
Track Severe Weather on mobile